Opp, AL (36467)

1:36 PM CDT on August 30, 2014 (GMT -0500)
Opp Cablevision Headend | Change Station
CLOSE
Current Station
Personal Weather Station
Location: Opp, AL
Elevation: 327 ft
Nearby Weather Stations

Elev 327 ft 31.29 °N, 86.26 °W | Updated 5 seconds ago

Partly Cloudy
Partly Cloudy
91.6 °F
Feels Like 102 °F
N
1.0
Wind Variable Wind from South
Gusts 9.0 mph

Today
High -- | Low -- °F
--% Chance of Precip.
Yesterday
High -- | Low -- °F
Precip. -- in
6:19 AM 7:10 PM
Waxing Crescent, 23% visible
Pressure 30.05 in
Visibility 10.0 miles
Clouds Few 4800 ft
Scattered Clouds 6000 ft
Scattered Clouds 8500 ft
Heat Index 102 °F
Dew Point 75 °F
Humidity 58%
Rainfall 0.00 in
Snow Depth Not available.
UV 10 out of 12
Pollen 7.60 out of 12
Air Quality Not available.
Flu Activity Not available.
METAR K79J 301756Z AUTO VRB05KT 10SM FEW048 SCT060 SCT085 37/21 A3007 RMK AO2 SLP175 T03720211 10372 20256 58018

More Conditions Fewer Conditions

Pressure 30.05 in
Visibility 10.0 miles
Clouds Few 4800 ft
Scattered Clouds 6000 ft
Scattered Clouds 8500 ft
Heat Index 102 °F
Dew Point 75 °F
Humidity 58%
Rainfall 0.00 in
Snow Depth Not available.
UV 10 out of 12
Pollen 7.60 out of 12
Air Quality Not available.
Flu Activity Not available.
METAR K79J 301756Z AUTO VRB05KT 10SM FEW048 SCT060 SCT085 37/21 A3007 RMK AO2 SLP175 T03720211 10372 20256 58018

More Conditions Fewer Conditions

10-Day Weather Forecast

Almanac

Astronomy

Aug. 30, 2014 Rise Set
Actual Time 6:19 AM CDT 7:10 PM CDT
Civil Twilight 5:55 AM CDT 7:35 PM CDT
Nautical Twilight 5:25 AM CDT 8:04 PM CDT
Astronomical Twilight 4:55 AM CDT 8:34 PM CDT
Moon 10:46 AM CDT 10:06 PM CDT
Length of Visible Light 13h 40m
Length of Day
12h 51m
Tomorrow will be 1m 48s shorter.
Waxing Crescent, 23% of the Moon is Illuminated
Today
Waxing Crescent
Sep 2
First Quarter
Sep 8
Full
Sep 15
Last Quarter
Sep 24
New

Today's Extremes

State Highs State Lows

Community

WunderPhotos

Upload Photos

1,748,591 photos uploaded!

WunderBlogs® & News

Nearby

Snow Depth

Station Depth Elevation
No new snow has been reported.

Earthquake Activity

City Distance Mag. Time & Date
No recent earthquake activity has been reported nearby.
Minimum magnitude displayed is 2.5.

Coastal Water Temperatures

Place Temperature
No Stations Reporting

Nearby Weather Stations